Time;durP1;ratioP1;P1;durP2;ratioP2;P2;SDS_P1;SDS_P2;PMS_P1;PMS_P2;Temp;Humidity;BMP_temperature;BMP_pressure;BME280_temperature;BME280_humidity;BME280_pressure;Samples;Min_cycle;Max_cycle;Signal;HPM_P1;HPM_P2
2022/04/28 00:00:03;;;;;;;0.88;0.30;;;4.40;99.90;;;;;;5040082;28;20051;-66
2022/04/28 00:02:29;;;;;;;1.30;0.40;;;4.40;99.90;;;;;;5047401;28;20077;-66
2022/04/28 00:04:55;;;;;;;1.33;0.32;;;4.30;99.90;;;;;;5038028;28;20097;-66
2022/04/28 00:07:22;;;;;;;0.98;0.30;;;4.30;99.90;;;;;;5042133;28;20068;-66
2022/04/28 00:09:47;;;;;;;1.65;0.40;;;4.30;99.90;;;;;;5036799;28;20044;-67
2022/04/28 00:12:13;;;;;;;1.38;0.40;;;4.30;99.90;;;;;;5040337;28;20485;-67
2022/04/28 00:14:39;;;;;;;1.05;0.30;;;4.30;99.90;;;;;;5038328;28;20459;-67
2022/04/28 00:17:05;;;;;;;1.90;0.40;;;4.30;99.90;;;;;;5040271;28;20025;-67
2022/04/28 00:19:30;;;;;;;1.58;0.40;;;4.30;99.90;;;;;;5043269;28;20030;-67
2022/04/28 00:21:56;;;;;;;1.50;0.40;;;4.20;99.90;;;;;;5040257;28;20374;-67
2022/04/28 00:24:22;;;;;;;1.75;0.30;;;4.10;99.90;;;;;;5042621;28;20738;-67
2022/04/28 00:26:47;;;;;;;1.70;0.40;;;4.10;99.90;;;;;;5046314;28;20189;-67
2022/04/28 00:29:13;;;;;;;1.27;0.30;;;4.10;99.90;;;;;;5039660;28;20038;-67
2022/04/28 00:31:39;;;;;;;1.63;0.40;;;4.10;99.90;;;;;;5040322;28;21050;-66
2022/04/28 00:34:04;;;;;;;1.48;0.40;;;4.00;99.90;;;;;;5039081;28;20043;-66
2022/04/28 00:36:30;;;;;;;1.17;0.30;;;4.00;99.90;;;;;;5042689;28;20045;-67
2022/04/28 00:38:56;;;;;;;1.92;0.40;;;3.90;99.90;;;;;;5039720;28;20046;-67
2022/04/28 00:41:21;;;;;;;1.48;0.30;;;3.90;99.90;;;;;;5041830;28;20028;-67
2022/04/28 00:43:52;;;;;;;1.27;0.40;;;3.80;99.90;;;;;;5055773;28;20056;-67
2022/04/28 00:46:18;;;;;;;1.25;0.30;;;4.00;99.90;;;;;;5043481;28;20060;-67
2022/04/28 00:51:34;;;;;;;1.73;0.40;;;4.00;99.90;;;;;;5036429;28;20049;-67
2022/04/28 00:54:01;;;;;;;1.42;0.35;;;4.00;99.90;;;;;;5037952;28;20051;-67
2022/04/28 00:56:28;;;;;;;1.80;0.40;;;3.90;99.90;;;;;;5043867;28;20039;-67
2022/04/28 00:58:55;;;;;;;1.33;0.38;;;3.80;99.90;;;;;;5038572;28;20048;-67
2022/04/28 01:01:21;;;;;;;1.90;0.40;;;3.90;99.90;;;;;;5041214;28;20033;-68
2022/04/28 01:03:47;;;;;;;1.02;0.30;;;3.90;99.90;;;;;;5038662;28;20101;-67
2022/04/28 01:06:13;;;;;;;1.65;0.40;;;3.90;99.90;;;;;;5038287;28;20056;-67
2022/04/28 01:08:40;;;;;;;1.20;0.40;;;3.80;99.90;;;;;;5042640;28;20053;-67
2022/04/28 01:11:07;;;;;;;1.52;0.40;;;3.70;99.90;;;;;;5040297;28;20017;-67
2022/04/28 01:13:32;;;;;;;1.50;0.40;;;3.70;99.90;;;;;;5038923;28;20021;-67
2022/04/28 01:15:58;;;;;;;1.80;0.40;;;3.70;99.90;;;;;;5041031;28;20246;-67
2022/04/28 01:18:24;;;;;;;1.65;0.40;;;3.70;99.90;;;;;;5043370;28;20025;-67
2022/04/28 01:20:50;;;;;;;1.50;0.40;;;3.80;99.90;;;;;;5041463;28;20025;-67
2022/04/28 01:23:16;;;;;;;1.58;0.40;;;3.70;99.90;;;;;;5041427;28;20056;-67
2022/04/28 01:25:41;;;;;;;1.55;0.40;;;3.70;99.90;;;;;;5039790;28;20050;-67
2022/04/28 01:28:07;;;;;;;1.48;0.40;;;3.80;99.90;;;;;;5039667;28;20026;-67
2022/04/28 01:30:34;;;;;;;1.60;0.40;;;3.80;99.90;;;;;;5039221;28;20056;-67
2022/04/28 01:33:00;;;;;;;1.65;0.40;;;3.90;99.90;;;;;;5041240;28;20132;-67
2022/04/28 01:35:26;;;;;;;1.88;0.40;;;4.00;99.90;;;;;;5042410;28;20063;-68
2022/04/28 01:37:52;;;;;;;1.58;0.40;;;4.10;99.90;;;;;;5040123;28;20044;-66
2022/04/28 01:40:18;;;;;;;1.67;0.40;;;4.20;99.90;;;;;;5047170;28;20044;-67
2022/04/28 01:42:45;;;;;;;1.23;0.30;;;4.30;99.90;;;;;;5043393;28;20117;-67
2022/04/28 01:45:11;;;;;;;1.70;0.40;;;4.40;99.90;;;;;;5042256;28;20033;-67
2022/04/28 01:47:39;;;;;;;1.58;0.40;;;4.50;99.90;;;;;;5048533;28;20028;-67
2022/04/28 01:50:06;;;;;;;1.70;0.40;;;4.50;99.90;;;;;;5044778;28;20033;-69
2022/04/28 01:55:16;;;;;;;1.60;0.40;;;4.70;99.90;;;;;;5042069;28;20075;-67
2022/04/28 01:57:42;;;;;;;1.60;0.40;;;4.80;99.90;;;;;;5042264;28;20100;-67
2022/04/28 02:00:09;;;;;;;1.55;0.40;;;4.80;99.90;;;;;;5040470;28;20072;-67
2022/04/28 02:02:35;;;;;;;1.80;0.40;;;5.00;99.90;;;;;;5044788;28;20028;-67
2022/04/28 02:05:05;;;;;;;1.75;0.40;;;5.00;99.90;;;;;;5041680;28;20076;-66
2022/04/28 02:07:30;;;;;;;1.50;0.40;;;5.10;99.90;;;;;;5042018;28;20045;-67
2022/04/28 02:09:58;;;;;;;1.75;0.40;;;5.10;99.90;;;;;;5045888;28;20059;-67
2022/04/28 02:12:27;;;;;;;1.30;0.30;;;5.20;99.90;;;;;;5041681;28;20045;-67
2022/04/28 02:14:53;;;;;;;1.65;0.40;;;5.20;99.90;;;;;;5041798;28;20526;-67
2022/04/28 02:17:20;;;;;;;1.60;0.40;;;5.30;99.90;;;;;;5045997;28;20028;-66
2022/04/28 02:19:46;;;;;;;1.25;0.40;;;5.30;99.90;;;;;;5043952;28;20089;-67
2022/04/28 02:22:11;;;;;;;1.67;0.40;;;5.40;99.90;;;;;;5045155;28;20045;-66
2022/04/28 02:24:37;;;;;;;1.45;0.40;;;5.50;99.90;;;;;;5043977;28;20057;-67
2022/04/28 02:27:03;;;;;;;1.60;0.40;;;5.50;99.90;;;;;;5044504;28;20033;-67
2022/04/28 02:29:30;;;;;;;1.63;0.40;;;5.60;99.90;;;;;;5044125;28;20030;-67
2022/04/28 02:31:55;;;;;;;1.38;0.40;;;5.70;99.90;;;;;;5047818;28;20021;-67
2022/04/28 02:34:21;;;;;;;1.52;0.40;;;5.80;99.90;;;;;;5047571;28;20534;-67
2022/04/28 02:36:47;;;;;;;1.05;0.30;;;5.90;99.90;;;;;;5042080;28;20083;-67
2022/04/28 02:39:14;;;;;;;1.27;0.30;;;5.90;99.90;;;;;;5043489;28;20112;-67
2022/04/28 02:41:40;;;;;;;1.58;0.40;;;6.00;99.90;;;;;;5042802;28;20030;-67
2022/04/28 02:44:06;;;;;;;1.00;0.30;;;6.10;99.90;;;;;;5048734;28;20097;-67
2022/04/28 02:46:32;;;;;;;1.35;0.38;;;6.20;99.90;;;;;;5045646;28;20025;-66
2022/04/28 02:48:58;;;;;;;1.40;0.38;;;6.20;99.90;;;;;;5041025;28;20025;-67
2022/04/28 02:51:23;;;;;;;1.75;0.40;;;6.10;99.90;;;;;;5045638;28;20116;-67
2022/04/28 02:53:49;;;;;;;0.75;0.30;;;6.10;99.90;;;;;;5047311;28;20056;-67
2022/04/28 02:56:15;;;;;;;1.38;0.40;;;6.20;99.90;;;;;;5048632;28;20055;-67
2022/04/28 02:58:40;;;;;;;1.13;0.30;;;6.10;99.90;;;;;;5042888;28;20064;-67
2022/04/28 03:01:06;;;;;;;1.58;0.40;;;6.20;99.90;;;;;;5041661;28;20327;-67
2022/04/28 03:03:32;;;;;;;1.38;0.40;;;6.20;99.90;;;;;;5044766;28;20120;-66
2022/04/28 03:11:31;;;;;;;1.52;0.40;;;6.30;99.90;;;;;;5037798;28;20060;-67
2022/04/28 03:13:58;;;;;;;1.23;0.30;;;6.20;99.90;;;;;;5044680;28;20025;-67
2022/04/28 03:16:24;;;;;;;1.85;0.43;;;6.30;99.90;;;;;;5042690;28;20107;-67
2022/04/28 03:18:50;;;;;;;0.85;0.30;;;6.30;99.90;;;;;;5041944;28;20036;-67
2022/04/28 03:21:16;;;;;;;1.00;0.30;;;6.30;99.90;;;;;;5044482;28;20025;-67
2022/04/28 03:23:41;;;;;;;0.80;0.30;;;6.30;99.90;;;;;;5049145;28;20140;-70
2022/04/28 03:26:07;;;;;;;1.65;0.40;;;6.30;99.90;;;;;;5045026;28;20045;-67
2022/04/28 03:28:35;;;;;;;0.98;0.30;;;6.30;99.90;;;;;;5042923;28;20036;-67
2022/04/28 03:31:03;;;;;;;1.55;0.40;;;6.40;99.90;;;;;;5039509;28;20060;-67
2022/04/28 03:33:29;;;;;;;1.20;0.40;;;6.40;99.90;;;;;;5043376;28;20029;-67
2022/04/28 03:35:55;;;;;;;1.15;0.35;;;6.40;99.90;;;;;;5048728;28;20045;-67
2022/04/28 03:38:20;;;;;;;1.17;0.30;;;6.40;99.90;;;;;;5040690;28;20887;-68
2022/04/28 03:40:46;;;;;;;1.08;0.30;;;6.50;99.90;;;;;;5045449;28;20040;-68
2022/04/28 03:43:12;;;;;;;1.48;0.40;;;6.60;99.90;;;;;;5044000;28;20411;-67
2022/04/28 03:45:38;;;;;;;1.13;0.30;;;6.60;99.90;;;;;;5045183;28;20029;-68
2022/04/28 03:48:08;;;;;;;1.38;0.40;;;6.70;99.90;;;;;;5042562;28;20036;-68
2022/04/28 03:50:34;;;;;;;1.08;0.30;;;6.70;99.90;;;;;;5041673;28;20037;-67
2022/04/28 03:52:59;;;;;;;0.82;0.30;;;6.70;99.90;;;;;;5044032;28;20071;-67
2022/04/28 03:55:26;;;;;;;1.50;0.60;;;6.80;99.90;;;;;;5042398;28;20041;-67
2022/04/28 03:57:52;;;;;;;1.40;0.35;;;6.90;99.90;;;;;;5043442;28;20024;-67
2022/04/28 04:00:18;;;;;;;1.30;0.30;;;6.90;99.90;;;;;;5041203;28;20033;-67
2022/04/28 04:02:44;;;;;;;1.33;0.40;;;6.90;99.90;;;;;;5039285;28;20760;-67
2022/04/28 04:05:11;;;;;;;0.90;0.30;;;6.90;99.90;;;;;;5045501;28;20075;-67
2022/04/28 04:07:39;;;;;;;0.80;0.30;;;7.00;99.90;;;;;;5040337;28;20041;-67
2022/04/28 04:10:10;;;;;;;1.23;0.38;;;7.00;99.90;;;;;;5040914;28;20057;-67
2022/04/28 04:12:35;;;;;;;1.02;0.30;;;7.00;99.90;;;;;;5040166;28;20085;-67
2022/04/28 04:15:02;;;;;;;1.25;0.40;;;7.00;99.90;;;;;;5046293;28;20049;-67
2022/04/28 04:17:27;;;;;;;1.30;0.38;;;7.00;99.90;;;;;;5041198;28;20138;-68
2022/04/28 04:19:53;;;;;;;1.15;0.40;;;7.00;99.90;;;;;;5038938;28;20106;-67
2022/04/28 04:22:18;;;;;;;1.05;0.40;;;7.10;99.90;;;;;;5043773;28;20030;-67
2022/04/28 04:24:44;;;;;;;1.58;0.40;;;7.10;99.90;;;;;;5042230;28;20091;-68
2022/04/28 04:27:10;;;;;;;1.13;0.30;;;7.10;99.90;;;;;;5041699;28;20029;-68
2022/04/28 04:29:36;;;;;;;1.58;0.40;;;7.10;99.90;;;;;;5035408;28;20099;-67
2022/04/28 04:32:18;;;;;;;0.85;0.28;;;7.10;99.90;;;;;;5042008;28;20424;-67
2022/04/28 04:34:45;;;;;;;1.42;0.40;;;7.10;99.90;;;;;;5041049;28;20025;-67
2022/04/28 04:37:11;;;;;;;1.15;0.40;;;7.20;99.90;;;;;;5038996;28;20084;-67
2022/04/28 04:39:37;;;;;;;1.35;0.40;;;7.20;99.90;;;;;;5038920;28;20108;-67
2022/04/28 04:42:03;;;;;;;1.05;0.30;;;7.20;99.90;;;;;;5038856;28;20118;-67
2022/04/28 04:44:29;;;;;;;0.82;0.30;;;7.20;99.90;;;;;;5042519;28;20034;-67
2022/04/28 04:46:55;;;;;;;0.77;0.30;;;7.30;99.90;;;;;;5044132;28;20126;-68
2022/04/28 04:49:20;;;;;;;0.88;0.30;;;7.30;99.90;;;;;;5040987;28;20041;-67
2022/04/28 04:51:46;;;;;;;1.02;0.30;;;7.40;99.90;;;;;;5041363;28;20042;-67
2022/04/28 04:54:12;;;;;;;1.20;0.30;;;7.40;99.90;;;;;;5045815;28;20093;-66
2022/04/28 04:56:38;;;;;;;1.92;0.40;;;7.40;99.90;;;;;;5050862;28;20049;-67
2022/04/28 04:59:04;;;;;;;1.58;0.40;;;7.50;99.90;;;;;;5047761;28;20021;-67
2022/04/28 05:01:30;;;;;;;0.85;0.30;;;7.50;99.90;;;;;;5044914;28;20238;-66
2022/04/28 05:03:55;;;;;;;0.90;0.30;;;7.50;99.90;;;;;;5036906;28;20056;-66
2022/04/28 05:06:21;;;;;;;0.93;0.30;;;7.50;99.90;;;;;;5052291;28;20033;-67
2022/04/28 05:08:47;;;;;;;0.95;0.38;;;7.60;99.90;;;;;;5047697;28;20048;-66
2022/04/28 05:11:13;;;;;;;0.88;0.30;;;7.60;99.90;;;;;;5053153;28;20029;-67
2022/04/28 05:13:39;;;;;;;0.63;0.30;;;7.60;99.90;;;;;;5040960;28;20029;-66
2022/04/28 05:16:05;;;;;;;1.00;0.30;;;7.70;99.90;;;;;;5049864;28;20048;-67
2022/04/28 05:18:31;;;;;;;0.73;0.30;;;7.70;99.90;;;;;;5044445;28;20025;-67
2022/04/28 05:20:57;;;;;;;1.17;0.30;;;7.70;99.90;;;;;;5048065;28;20033;-66
2022/04/28 05:23:23;;;;;;;1.02;0.30;;;7.80;99.90;;;;;;5044073;28;20044;-67
2022/04/28 05:25:49;;;;;;;0.57;0.22;;;7.80;99.90;;;;;;5051336;28;20055;-67
2022/04/28 05:28:14;;;;;;;0.70;0.30;;;7.80;99.90;;;;;;5052792;28;20045;-66
2022/04/28 05:30:40;;;;;;;0.70;0.30;;;7.90;99.90;;;;;;5044211;28;20319;-67
2022/04/28 05:33:06;;;;;;;0.75;0.30;;;7.90;99.90;;;;;;5047385;28;20025;-67
2022/04/28 05:35:34;;;;;;;1.02;0.30;;;8.00;99.90;;;;;;5050093;28;20553;-67
2022/04/28 05:38:00;;;;;;;1.00;0.40;;;8.10;99.90;;;;;;5043875;28;20422;-67
2022/04/28 05:40:26;;;;;;;1.13;0.35;;;8.10;99.90;;;;;;5040651;28;20029;-67
2022/04/28 05:45:42;;;;;;;0.40;0.28;;;8.20;99.90;;;;;;5048612;28;20099;-67
2022/04/28 05:48:12;;;;;;;0.73;0.30;;;8.30;99.90;;;;;;5049879;28;20100;-67
2022/04/28 05:50:39;;;;;;;0.35;0.30;;;8.30;99.90;;;;;;5047052;28;20056;-67
2022/04/28 05:53:05;;;;;;;0.38;0.28;;;8.40;99.90;;;;;;5049606;28;20029;-67
2022/04/28 05:55:31;;;;;;;0.55;0.28;;;8.40;99.90;;;;;;5045945;28;20025;-67
2022/04/28 05:57:59;;;;;;;0.47;0.28;;;8.50;99.90;;;;;;5049241;28;20013;-67
2022/04/28 06:00:26;;;;;;;0.20;0.20;;;8.50;99.90;;;;;;5048023;28;20060;-67
2022/04/28 06:02:53;;;;;;;0.65;0.50;;;8.60;99.90;;;;;;5046572;28;20030;-67
2022/04/28 06:05:18;;;;;;;0.70;0.30;;;8.60;99.90;;;;;;5044278;28;20036;-67
2022/04/28 06:07:44;;;;;;;0.70;0.30;;;8.60;99.90;;;;;;5046072;28;20094;-67
2022/04/28 06:10:12;;;;;;;0.73;0.30;;;8.70;99.90;;;;;;5047726;28;20041;-67
2022/04/28 06:12:37;;;;;;;0.73;0.30;;;8.70;99.90;;;;;;5038143;28;20083;-67
2022/04/28 06:15:03;;;;;;;0.28;0.28;;;8.70;99.90;;;;;;5046896;28;20042;-67
2022/04/28 06:17:29;;;;;;;0.70;0.30;;;8.80;99.90;;;;;;5049393;28;20029;-67
2022/04/28 06:19:55;;;;;;;0.20;0.20;;;8.80;99.90;;;;;;5048430;28;20078;-67
2022/04/28 06:22:20;;;;;;;1.15;0.35;;;8.80;99.90;;;;;;5052616;28;20026;-67
2022/04/28 06:24:51;;;;;;;0.82;0.30;;;8.90;99.90;;;;;;5046228;28;20085;-67
2022/04/28 06:27:17;;;;;;;0.52;0.30;;;8.90;99.90;;;;;;5042217;28;20036;-67
2022/04/28 06:29:44;;;;;;;0.98;0.30;;;8.90;99.90;;;;;;5048469;28;20034;-67
2022/04/28 06:32:10;;;;;;;1.10;0.30;;;8.90;99.90;;;;;;5048226;28;20037;-67
2022/04/28 06:34:36;;;;;;;1.02;0.40;;;9.00;99.90;;;;;;5052032;28;20029;-67
2022/04/28 06:37:05;;;;;;;0.52;0.30;;;8.90;99.90;;;;;;5042350;28;20078;-70
2022/04/28 06:39:30;;;;;;;0.52;0.20;;;8.90;99.90;;;;;;5061542;28;20033;-66
2022/04/28 06:41:56;;;;;;;0.40;0.20;;;8.90;99.90;;;;;;5050859;28;20433;-67
2022/04/28 06:44:22;;;;;;;0.63;0.30;;;8.90;99.90;;;;;;5056907;28;20045;-67
2022/04/28 06:46:47;;;;;;;0.88;0.30;;;8.90;99.90;;;;;;5054905;28;20544;-67
2022/04/28 06:49:13;;;;;;;1.08;0.30;;;9.00;99.90;;;;;;5046161;28;20029;-67
2022/04/28 06:51:39;;;;;;;0.47;0.30;;;9.10;99.90;;;;;;5050249;28;20021;-66
2022/04/28 06:54:04;;;;;;;0.98;0.32;;;9.20;99.90;;;;;;5058294;28;20025;-66
2022/04/28 06:56:30;;;;;;;0.80;0.30;;;9.30;99.90;;;;;;5043422;28;20025;-66
2022/04/28 06:58:56;;;;;;;0.80;0.30;;;9.40;99.90;;;;;;5057383;28;20400;-66
2022/04/28 07:01:21;;;;;;;0.57;0.30;;;9.60;99.90;;;;;;5059390;28;20035;-66
2022/04/28 07:03:47;;;;;;;0.80;0.30;;;9.80;99.90;;;;;;5044367;28;20049;-66
2022/04/28 07:06:13;;;;;;;0.90;0.30;;;10.00;99.90;;;;;;5051971;28;20021;-71
2022/04/28 07:08:39;;;;;;;0.80;0.30;;;10.10;99.90;;;;;;5057931;28;20556;-67
2022/04/28 07:11:04;;;;;;;0.63;0.30;;;10.30;99.90;;;;;;5051102;28;20102;-67
2022/04/28 07:13:30;;;;;;;0.60;0.30;;;10.40;99.90;;;;;;5048340;28;20123;-66
2022/04/28 07:15:56;;;;;;;0.77;0.30;;;10.40;99.90;;;;;;5045501;28;20036;-66
2022/04/28 07:18:22;;;;;;;0.73;0.50;;;10.60;99.90;;;;;;5061610;28;20649;-66
2022/04/28 07:20:47;;;;;;;0.82;0.30;;;10.80;99.90;;;;;;5057614;28;20437;-66
2022/04/28 07:23:15;;;;;;;0.57;0.30;;;11.00;99.90;;;;;;5045536;28;20021;-66
2022/04/28 07:25:41;;;;;;;0.47;0.20;;;11.20;99.90;;;;;;5042596;28;20033;-67
2022/04/28 07:28:07;;;;;;;0.20;0.20;;;11.30;99.90;;;;;;5056022;28;20416;-68
2022/04/28 07:30:33;;;;;;;0.73;0.30;;;11.70;99.90;;;;;;5049514;28;20025;-67
2022/04/28 07:32:59;;;;;;;0.57;0.55;;;11.80;99.90;;;;;;5052572;28;20043;-66
2022/04/28 07:35:24;;;;;;;0.43;0.20;;;11.70;99.90;;;;;;5054775;28;20116;-66
2022/04/28 07:37:51;;;;;;;0.28;0.20;;;11.90;99.90;;;;;;5039420;28;20030;-66
2022/04/28 07:40:17;;;;;;;0.40;0.20;;;11.60;99.90;;;;;;5042719;28;20032;-67
2022/04/28 07:42:43;;;;;;;0.35;0.20;;;11.60;99.90;;;;;;5040412;28;20063;-66
2022/04/28 07:45:10;;;;;;;0.45;0.28;;;11.50;99.90;;;;;;5056459;28;20037;-66
2022/04/28 07:47:36;;;;;;;0.40;0.28;;;11.40;99.90;;;;;;5059919;28;20043;-66
2022/04/28 07:50:02;;;;;;;0.28;0.28;;;11.50;99.90;;;;;;5061741;28;20025;-66
2022/04/28 07:52:27;;;;;;;0.77;0.30;;;11.30;99.90;;;;;;5061041;28;20040;-67
2022/04/28 07:54:53;;;;;;;0.40;0.28;;;11.20;99.90;;;;;;5054125;28;20021;-66
2022/04/28 07:57:22;;;;;;;0.88;0.43;;;11.40;99.90;;;;;;5061591;28;20060;-66
2022/04/28 07:59:49;;;;;;;0.73;0.30;;;11.30;99.90;;;;;;5058357;28;20032;-65
2022/04/28 08:02:15;;;;;;;0.20;0.20;;;11.20;99.90;;;;;;5054314;28;20033;-67
2022/04/28 08:04:41;;;;;;;0.75;0.45;;;11.30;99.90;;;;;;5060606;28;20041;-66
2022/04/28 08:07:07;;;;;;;0.88;0.52;;;11.20;99.90;;;;;;5059295;28;20053;-66
2022/04/28 08:09:33;;;;;;;0.68;0.30;;;11.20;99.90;;;;;;5058789;28;20070;-65
2022/04/28 08:11:59;;;;;;;0.65;0.30;;;11.30;99.90;;;;;;5050983;28;20086;-66
2022/04/28 08:14:25;;;;;;;0.22;0.20;;;11.40;99.90;;;;;;5045715;28;20037;-65
2022/04/28 08:16:55;;;;;;;0.38;0.22;;;11.30;99.90;;;;;;5061124;28;20032;-66
2022/04/28 08:19:21;;;;;;;0.30;0.20;;;11.20;99.90;;;;;;5058836;28;20029;-66
2022/04/28 08:21:47;;;;;;;0.30;0.20;;;11.30;99.90;;;;;;5055233;28;20359;-65
2022/04/28 08:24:13;;;;;;;1.15;0.40;;;11.40;99.90;;;;;;5039377;28;20049;-65
2022/04/28 08:26:40;;;;;;;0.28;0.20;;;11.60;99.90;;;;;;5055020;28;20029;-65
2022/04/28 08:29:05;;;;;;;0.57;0.30;;;11.70;99.90;;;;;;5055140;28;20029;-65
2022/04/28 08:31:32;;;;;;;0.22;0.20;;;11.70;99.90;;;;;;5048828;28;20045;-66
2022/04/28 08:33:58;;;;;;;0.20;0.20;;;11.70;99.90;;;;;;5051953;28;20031;-66
2022/04/28 08:36:25;;;;;;;0.40;0.20;;;11.80;99.90;;;;;;5059998;28;20063;-66
2022/04/28 08:38:52;;;;;;;0.40;0.28;;;12.20;99.90;;;;;;5058270;28;20068;-66
2022/04/28 08:41:29;;;;;;;0.43;0.20;;;12.30;99.90;;;;;;5059027;28;20093;-66
2022/04/28 08:43:59;;;;;;;0.20;0.20;;;12.50;99.90;;;;;;5059632;28;20037;-65
2022/04/28 08:49:12;;;;;;;1.55;0.80;;;13.10;99.90;;;;;;5057726;28;20043;-66
2022/04/28 08:51:38;;;;;;;0.30;0.20;;;13.10;99.90;;;;;;5056155;28;20116;-66
2022/04/28 08:54:05;;;;;;;0.20;0.20;;;13.20;99.90;;;;;;5040957;28;20097;-66
2022/04/28 08:56:31;;;;;;;0.40;0.30;;;13.30;99.90;;;;;;5040381;28;20056;-66
2022/04/28 08:58:57;;;;;;;0.28;0.20;;;13.10;99.90;;;;;;5042153;28;20017;-67
2022/04/28 09:01:27;;;;;;;0.40;0.20;;;13.10;99.90;;;;;;5050010;28;20117;-66
2022/04/28 09:03:57;;;;;;;0.35;0.20;;;13.40;99.90;;;;;;5049487;28;20045;-66
2022/04/28 09:06:23;;;;;;;0.20;0.20;;;13.40;99.90;;;;;;5052533;28;20086;-66
2022/04/28 09:08:50;;;;;;;0.70;0.35;;;13.30;99.90;;;;;;5052271;28;20037;-66
2022/04/28 09:11:18;;;;;;;0.57;0.30;;;13.40;99.90;;;;;;5053905;28;20043;-67
2022/04/28 09:16:32;;;;;;;0.20;0.20;;;13.30;99.90;;;;;;5042028;28;20072;-66
2022/04/28 09:18:58;;;;;;;0.20;0.20;;;13.10;99.90;;;;;;5052995;28;20029;-66
2022/04/28 09:21:24;;;;;;;0.20;0.20;;;13.30;99.90;;;;;;5046153;28;20026;-67
2022/04/28 09:23:53;;;;;;;0.82;0.40;;;13.50;99.90;;;;;;5043405;28;20114;-66
2022/04/28 09:26:23;;;;;;;0.32;0.20;;;13.50;99.90;;;;;;5057515;28;20021;-67
2022/04/28 09:28:48;;;;;;;0.38;0.20;;;13.60;99.90;;;;;;5051641;28;20094;-66
2022/04/28 09:31:17;;;;;;;0.35;0.20;;;13.80;99.90;;;;;;5057039;28;20045;-69
2022/04/28 09:33:46;;;;;;;0.20;0.20;;;13.80;99.90;;;;;;5053509;28;20079;-69
2022/04/28 09:36:13;;;;;;;0.45;0.35;;;13.90;99.90;;;;;;5053137;28;20104;-69
2022/04/28 09:38:38;;;;;;;0.30;0.20;;;14.20;99.90;;;;;;5056408;28;20056;-69
2022/04/28 09:43:55;;;;;;;0.43;0.20;;;14.50;98.30;;;;;;5058075;28;20420;-70
2022/04/28 09:46:23;;;;;;;0.20;0.20;;;14.60;99.90;;;;;;5044117;28;20029;-70
2022/04/28 09:48:50;;;;;;;0.40;0.20;;;14.70;99.90;;;;;;5040405;28;20037;-71
2022/04/28 09:51:22;;;;;;;0.10;0.10;;;15.60;99.90;;;;;;5039222;28;20056;-70
2022/04/28 09:53:49;;;;;;;0.20;0.20;;;16.00;91.60;;;;;;5043832;28;20017;-71
2022/04/28 09:56:16;;;;;;;0.28;0.20;;;15.90;80.60;;;;;;5051131;28;20029;-65
2022/04/28 09:58:42;;;;;;;0.32;0.20;;;16.00;94.70;;;;;;5043538;28;20033;-71
2022/04/28 10:01:08;;;;;;;0.20;0.20;;;15.80;88.00;;;;;;5048888;28;20049;-71
2022/04/28 10:03:34;;;;;;;0.40;0.20;;;15.70;83.90;;;;;;5043191;28;20037;-71
2022/04/28 10:06:05;;;;;;;0.28;0.20;;;15.80;83.80;;;;;;5054885;28;20126;-71
2022/04/28 10:08:33;;;;;;;0.57;0.30;;;16.10;91.60;;;;;;5058634;28;20052;-71
2022/04/28 10:11:01;;;;;;;0.40;0.20;;;16.10;91.20;;;;;;5044952;28;20563;-72
2022/04/28 10:13:31;;;;;;;0.15;0.10;;;16.10;94.90;;;;;;5049250;28;20017;-71
2022/04/28 10:16:07;;;;;;;1.05;0.52;;;16.00;95.90;;;;;;5054862;28;20033;-72
2022/04/28 10:18:38;;;;;;;0.57;0.40;;;16.10;92.50;;;;;;5059112;28;20062;-71
2022/04/28 10:21:06;;;;;;;0.37;0.20;;;15.50;81.90;;;;;;5044247;28;20013;-71
2022/04/28 10:35:06;;;;;;;0.35;0.15;;;16.60;71.60;;;;;;5043821;28;20106;-66
2022/04/28 10:37:39;;;;;;;0.38;0.17;;;15.90;84.90;;;;;;5049365;28;20159;-67
2022/04/28 10:40:05;;;;;;;0.22;0.10;;;16.40;97.00;;;;;;5056127;28;20025;-75
2022/04/28 10:42:35;;;;;;;0.35;0.10;;;16.30;86.40;;;;;;5025436;28;20041;-75
2022/04/28 10:45:04;;;;;;;0.38;0.20;;;17.40;93.30;;;;;;5044641;28;20048;-76
2022/04/28 10:47:37;;;;;;;0.17;0.15;;;17.30;70.10;;;;;;5045601;28;20040;-76
2022/04/28 10:50:20;;;;;;;0.63;0.22;;;16.90;72.30;;;;;;5042631;28;20029;-74
2022/04/28 10:52:55;;;;;;;0.70;0.35;;;16.60;79.00;;;;;;5051908;28;20025;-71
2022/04/28 10:55:23;;;;;;;0.20;0.10;;;17.70;72.00;;;;;;5048464;28;20018;-77
2022/04/28 10:57:50;;;;;;;0.10;0.10;;;18.00;77.30;;;;;;5064887;28;20025;-76
2022/04/28 11:00:34;;;;;;;0.17;0.10;;;18.40;76.80;;;;;;5037642;28;20033;-77
2022/04/28 11:03:00;;;;;;;0.63;0.20;;;17.50;69.80;;;;;;5051577;28;20044;-75
2022/04/28 11:05:28;;;;;;;0.17;0.10;;;17.00;74.60;;;;;;5050743;28;20045;-76
2022/04/28 11:07:54;;;;;;;0.47;0.20;;;16.80;72.10;;;;;;5047022;28;20043;-79
2022/04/28 11:10:20;;;;;;;0.47;0.20;;;17.20;87.10;;;;;;5039714;28;20064;-83
2022/04/28 11:12:45;;;;;;;0.55;0.20;;;18.10;80.20;;;;;;5018799;28;20466;-78
2022/04/28 11:15:14;;;;;;;0.40;0.13;;;17.80;72.00;;;;;;5031600;28;20025;-85
2022/04/28 11:17:43;;;;;;;0.30;0.15;;;17.50;74.10;;;;;;5038077;28;20059;-83
2022/04/28 11:20:21;;;;;;;0.17;0.10;;;17.70;91.30;;;;;;5059983;28;20033;-85
2022/04/28 11:22:51;;;;;;;0.82;0.30;;;17.60;79.70;;;;;;5042136;28;20031;-80
2022/04/28 11:25:19;;;;;;;0.38;0.20;;;17.10;80.30;;;;;;5053617;28;20060;-80
2022/04/28 11:27:47;;;;;;;0.10;0.10;;;17.00;83.00;;;;;;5058992;28;20030;-77
2022/04/28 11:30:16;;;;;;;0.13;0.10;;;17.20;92.60;;;;;;5053416;28;20040;-75
2022/04/28 11:32:57;;;;;;;0.45;0.45;;;17.80;94.20;;;;;;5055142;28;20021;-75
2022/04/28 11:35:28;;;;;;;0.22;0.15;;;17.50;90.10;;;;;;5055351;28;20025;-66
2022/04/28 11:37:55;;;;;;;0.10;0.10;;;17.20;81.30;;;;;;5060363;28;20066;-66
2022/04/28 11:40:24;;;;;;;0.17;0.10;;;16.80;81.00;;;;;;5052875;28;20025;-66
2022/04/28 11:42:56;;;;;;;0.57;0.40;;;17.10;85.20;;;;;;5043845;28;20049;-67
2022/04/28 11:45:22;;;;;;;0.88;0.30;;;16.80;92.50;;;;;;5046594;28;20037;-67
2022/04/28 11:47:49;;;;;;;0.17;0.10;;;17.00;86.60;;;;;;5048111;28;20034;-64
2022/04/28 11:50:20;;;;;;;0.28;0.20;;;17.10;85.20;;;;;;5052116;28;20048;-65
2022/04/28 11:52:56;;;;;;;0.10;0.10;;;17.40;75.30;;;;;;5060671;28;20033;-64
2022/04/28 11:55:25;;;;;;;0.38;0.20;;;17.20;79.00;;;;;;5060244;28;20029;-65
2022/04/28 11:57:51;;;;;;;0.35;0.10;;;17.30;71.00;;;;;;5062575;28;20017;-65
2022/04/28 12:00:17;;;;;;;0.10;0.10;;;17.30;72.90;;;;;;5061065;28;20033;-65
2022/04/28 12:02:44;;;;;;;0.65;0.35;;;17.80;87.90;;;;;;5061119;28;20029;-65
2022/04/28 12:05:19;;;;;;;0.10;0.10;;;18.30;69.30;;;;;;5056497;28;20045;-66
2022/04/28 12:07:51;;;;;;;0.32;0.20;;;17.90;63.70;;;;;;5059215;28;20473;-66
2022/04/28 12:15:56;;;;;;;0.17;0.10;;;17.50;76.30;;;;;;5046290;28;20048;-66
2022/04/28 12:21:23;;;;;;;0.28;0.10;;;17.30;69.30;;;;;;5059002;28;20310;-66
2022/04/28 12:23:52;;;;;;;0.30;0.10;;;17.10;78.20;;;;;;5058636;28;20473;-66
2022/04/28 12:26:24;;;;;;;0.17;0.10;;;17.40;68.60;;;;;;5056235;28;20032;-66
2022/04/28 12:28:50;;;;;;;0.17;0.10;;;18.50;81.80;;;;;;5060878;28;20072;-66
2022/04/28 12:31:26;;;;;;;0.28;0.10;;;18.50;64.00;;;;;;5059190;28;20063;-66
2022/04/28 12:33:52;;;;;;;0.13;0.10;;;18.00;63.10;;;;;;5060021;28;20025;-65
2022/04/28 12:36:18;;;;;;;0.40;0.10;;;17.60;86.70;;;;;;5059733;28;20086;-66
2022/04/28 12:38:45;;;;;;;0.30;0.20;;;18.00;74.10;;;;;;5059883;28;20033;-65
2022/04/28 12:41:32;;;;;;;0.20;0.10;;;18.00;77.10;;;;;;5059869;28;20030;-65
2022/04/28 12:43:59;;;;;;;0.93;0.38;;;17.40;86.30;;;;;;5062070;28;20040;-66
2022/04/28 12:46:47;;;;;;;0.45;0.20;;;18.20;83.70;;;;;;5053662;28;20033;-66
2022/04/28 12:49:16;;;;;;;0.30;0.10;;;18.30;72.80;;;;;;5050230;28;20025;-66
2022/04/28 12:51:46;;;;;;;0.25;0.10;;;18.60;64.90;;;;;;5059308;28;20097;-66
2022/04/28 12:54:13;;;;;;;0.10;0.10;;;18.60;71.70;;;;;;5058585;28;20120;-66
2022/04/28 12:56:43;;;;;;;0.17;0.10;;;18.10;66.30;;;;;;5050355;28;20052;-66
2022/04/28 12:59:10;;;;;;;0.93;0.30;;;17.40;73.20;;;;;;5040524;28;20429;-66
2022/04/28 13:01:38;;;;;;;0.60;0.32;;;17.00;72.60;;;;;;5059788;28;20043;-66
2022/04/28 13:04:09;;;;;;;0.50;0.20;;;17.10;91.90;;;;;;5041259;28;20041;-66
2022/04/28 13:06:38;;;;;;;0.25;0.10;;;16.80;81.30;;;;;;5042203;28;20045;-66
2022/04/28 13:09:07;;;;;;;0.52;0.20;;;17.20;94.00;;;;;;5046083;28;20037;-66
2022/04/28 13:11:35;;;;;;;0.20;0.10;;;17.20;87.80;;;;;;5055901;28;20025;-66
2022/04/28 13:14:02;;;;;;;0.73;0.20;;;17.30;87.40;;;;;;5047642;28;20088;-67
2022/04/28 13:16:28;;;;;;;0.47;0.20;;;17.20;78.10;;;;;;5043050;28;20106;-66
2022/04/28 13:18:55;;;;;;;0.15;0.10;;;17.70;86.10;;;;;;5060125;28;20017;-66
2022/04/28 13:21:22;;;;;;;0.20;0.10;;;17.30;71.60;;;;;;5060251;28;20159;-64
2022/04/28 13:23:48;;;;;;;0.25;0.10;;;17.40;83.40;;;;;;5050139;28;20025;-66
2022/04/28 13:26:16;;;;;;;0.43;0.30;;;17.20;84.70;;;;;;5045296;28;20065;-72
2022/04/28 13:28:42;;;;;;;0.28;0.10;;;17.40;86.20;;;;;;5051279;28;20040;-71
2022/04/28 13:31:08;;;;;;;0.57;0.35;;;17.50;74.40;;;;;;5042455;28;20854;-70
2022/04/28 13:33:34;;;;;;;0.30;0.20;;;17.90;91.50;;;;;;5040045;28;20411;-72